sensor_id;sensor_type;location;lat;lon;timestamp;P1;durP1;ratioP1;P2;durP2;ratioP2
58354;SDS011;44160;49.080;19.302;2023-04-10T00:00:41;33.30;;;17.98;;
58354;SDS011;44160;49.080;19.302;2023-04-10T00:03:12;29.45;;;16.00;;
58354;SDS011;44160;49.080;19.302;2023-04-10T00:05:38;31.70;;;18.20;;
58354;SDS011;44160;49.080;19.302;2023-04-10T00:08:04;29.88;;;16.20;;
58354;SDS011;44160;49.080;19.302;2023-04-10T00:10:30;37.97;;;18.00;;
58354;SDS011;44160;49.080;19.302;2023-04-10T00:12:57;30.15;;;16.58;;
58354;SDS011;44160;49.080;19.302;2023-04-10T00:15:25;29.33;;;17.02;;
58354;SDS011;44160;49.080;19.302;2023-04-10T00:17:52;29.27;;;16.02;;
58354;SDS011;44160;49.080;19.302;2023-04-10T00:20:19;30.95;;;16.58;;
58354;SDS011;44160;49.080;19.302;2023-04-10T00:22:46;29.35;;;16.00;;
58354;SDS011;44160;49.080;19.302;2023-04-10T00:25:12;30.95;;;14.82;;
58354;SDS011;44160;49.080;19.302;2023-04-10T00:27:38;26.70;;;14.75;;
58354;SDS011;44160;49.080;19.302;2023-04-10T00:30:05;30.65;;;16.88;;
58354;SDS011;44160;49.080;19.302;2023-04-10T00:32:31;33.63;;;16.48;;
58354;SDS011;44160;49.080;19.302;2023-04-10T00:34:57;26.30;;;15.93;;
58354;SDS011;44160;49.080;19.302;2023-04-10T00:37:25;27.65;;;14.48;;
58354;SDS011;44160;49.080;19.302;2023-04-10T00:39:51;30.50;;;16.45;;
58354;SDS011;44160;49.080;19.302;2023-04-10T00:42:17;25.17;;;15.13;;
58354;SDS011;44160;49.080;19.302;2023-04-10T00:44:43;28.58;;;15.02;;
58354;SDS011;44160;49.080;19.302;2023-04-10T00:47:10;26.55;;;14.95;;
58354;SDS011;44160;49.080;19.302;2023-04-10T00:49:37;26.63;;;15.10;;
58354;SDS011;44160;49.080;19.302;2023-04-10T00:52:03;26.55;;;14.20;;
58354;SDS011;44160;49.080;19.302;2023-04-10T00:54:30;29.30;;;15.38;;
58354;SDS011;44160;49.080;19.302;2023-04-10T00:56:56;24.80;;;15.00;;
58354;SDS011;44160;49.080;19.302;2023-04-10T00:59:23;29.02;;;16.02;;
58354;SDS011;44160;49.080;19.302;2023-04-10T01:01:49;30.33;;;14.93;;
58354;SDS011;44160;49.080;19.302;2023-04-10T01:04:15;28.45;;;14.38;;
58354;SDS011;44160;49.080;19.302;2023-04-10T01:15:11;28.77;;;14.38;;
58354;SDS011;44160;49.080;19.302;2023-04-10T01:20:13;27.83;;;13.15;;
58354;SDS011;44160;49.080;19.302;2023-04-10T01:25:27;25.52;;;14.15;;
58354;SDS011;44160;49.080;19.302;2023-04-10T01:30:24;24.50;;;14.60;;
58354;SDS011;44160;49.080;19.302;2023-04-10T01:32:51;25.15;;;14.25;;
58354;SDS011;44160;49.080;19.302;2023-04-10T01:35:20;27.73;;;14.20;;
58354;SDS011;44160;49.080;19.302;2023-04-10T01:37:46;23.42;;;13.18;;
58354;SDS011;44160;49.080;19.302;2023-04-10T01:40:14;24.35;;;13.48;;
58354;SDS011;44160;49.080;19.302;2023-04-10T01:42:43;25.83;;;13.27;;
58354;SDS011;44160;49.080;19.302;2023-04-10T01:45:13;27.02;;;12.82;;
58354;SDS011;44160;49.080;19.302;2023-04-10T01:47:41;26.33;;;13.68;;
58354;SDS011;44160;49.080;19.302;2023-04-10T01:50:07;24.67;;;13.63;;
58354;SDS011;44160;49.080;19.302;2023-04-10T01:52:35;23.58;;;13.50;;
58354;SDS011;44160;49.080;19.302;2023-04-10T01:55:01;25.90;;;13.65;;
58354;SDS011;44160;49.080;19.302;2023-04-10T01:57:28;26.52;;;15.48;;
58354;SDS011;44160;49.080;19.302;2023-04-10T01:59:56;27.52;;;14.98;;
58354;SDS011;44160;49.080;19.302;2023-04-10T02:02:22;26.52;;;13.82;;
58354;SDS011;44160;49.080;19.302;2023-04-10T02:04:48;25.73;;;13.93;;
58354;SDS011;44160;49.080;19.302;2023-04-10T02:07:23;27.58;;;13.93;;
58354;SDS011;44160;49.080;19.302;2023-04-10T02:09:57;25.92;;;13.27;;
58354;SDS011;44160;49.080;19.302;2023-04-10T02:12:33;24.60;;;13.75;;
58354;SDS011;44160;49.080;19.302;2023-04-10T02:15:01;24.50;;;12.52;;
58354;SDS011;44160;49.080;19.302;2023-04-10T02:17:30;22.23;;;12.98;;
58354;SDS011;44160;49.080;19.302;2023-04-10T02:19:56;23.02;;;12.70;;
58354;SDS011;44160;49.080;19.302;2023-04-10T02:22:23;25.40;;;13.90;;
58354;SDS011;44160;49.080;19.302;2023-04-10T02:24:51;23.95;;;14.25;;
58354;SDS011;44160;49.080;19.302;2023-04-10T02:27:28;27.02;;;13.90;;
58354;SDS011;44160;49.080;19.302;2023-04-10T02:29:55;32.92;;;14.45;;
58354;SDS011;44160;49.080;19.302;2023-04-10T02:32:21;23.73;;;13.63;;
58354;SDS011;44160;49.080;19.302;2023-04-10T02:34:47;23.45;;;12.93;;
58354;SDS011;44160;49.080;19.302;2023-04-10T02:37:13;25.27;;;15.27;;
58354;SDS011;44160;49.080;19.302;2023-04-10T02:39:40;26.45;;;14.52;;
58354;SDS011;44160;49.080;19.302;2023-04-10T02:42:06;28.70;;;15.10;;
58354;SDS011;44160;49.080;19.302;2023-04-10T02:44:32;25.70;;;13.73;;
58354;SDS011;44160;49.080;19.302;2023-04-10T02:46:59;27.50;;;13.75;;
58354;SDS011;44160;49.080;19.302;2023-04-10T02:49:25;23.60;;;13.68;;
58354;SDS011;44160;49.080;19.302;2023-04-10T02:51:51;31.45;;;15.88;;
58354;SDS011;44160;49.080;19.302;2023-04-10T02:54:17;27.85;;;14.50;;
58354;SDS011;44160;49.080;19.302;2023-04-10T02:56:43;31.63;;;15.00;;
58354;SDS011;44160;49.080;19.302;2023-04-10T02:59:09;27.33;;;15.65;;
58354;SDS011;44160;49.080;19.302;2023-04-10T03:01:36;28.30;;;14.45;;
58354;SDS011;44160;49.080;19.302;2023-04-10T03:04:03;23.75;;;14.38;;
58354;SDS011;44160;49.080;19.302;2023-04-10T03:06:29;27.33;;;15.57;;
58354;SDS011;44160;49.080;19.302;2023-04-10T03:08:55;26.73;;;13.88;;
58354;SDS011;44160;49.080;19.302;2023-04-10T03:11:21;28.20;;;14.52;;
58354;SDS011;44160;49.080;19.302;2023-04-10T03:13:47;25.10;;;14.15;;
58354;SDS011;44160;49.080;19.302;2023-04-10T03:16:14;26.00;;;13.70;;
58354;SDS011;44160;49.080;19.302;2023-04-10T03:18:41;25.45;;;13.15;;
58354;SDS011;44160;49.080;19.302;2023-04-10T03:21:07;29.15;;;14.98;;
58354;SDS011;44160;49.080;19.302;2023-04-10T03:23:33;28.20;;;15.07;;
58354;SDS011;44160;49.080;19.302;2023-04-10T03:25:59;25.83;;;14.88;;
58354;SDS011;44160;49.080;19.302;2023-04-10T03:28:25;29.02;;;16.33;;
58354;SDS011;44160;49.080;19.302;2023-04-10T03:30:51;26.67;;;15.88;;
58354;SDS011;44160;49.080;19.302;2023-04-10T03:33:17;26.58;;;14.07;;
58354;SDS011;44160;49.080;19.302;2023-04-10T03:35:44;24.55;;;13.80;;
58354;SDS011;44160;49.080;19.302;2023-04-10T03:38:11;26.88;;;15.43;;
58354;SDS011;44160;49.080;19.302;2023-04-10T03:40:37;25.70;;;13.95;;
58354;SDS011;44160;49.080;19.302;2023-04-10T03:43:03;24.52;;;14.98;;
58354;SDS011;44160;49.080;19.302;2023-04-10T03:45:29;27.20;;;14.63;;
58354;SDS011;44160;49.080;19.302;2023-04-10T03:47:55;25.73;;;13.32;;
58354;SDS011;44160;49.080;19.302;2023-04-10T03:50:21;24.08;;;14.02;;
58354;SDS011;44160;49.080;19.302;2023-04-10T03:52:47;24.63;;;13.40;;
58354;SDS011;44160;49.080;19.302;2023-04-10T03:55:14;26.10;;;14.23;;
58354;SDS011;44160;49.080;19.302;2023-04-10T03:57:46;26.13;;;14.80;;
58354;SDS011;44160;49.080;19.302;2023-04-10T04:00:13;22.90;;;13.32;;
58354;SDS011;44160;49.080;19.302;2023-04-10T04:02:39;24.23;;;14.13;;
58354;SDS011;44160;49.080;19.302;2023-04-10T04:05:05;22.85;;;14.43;;
58354;SDS011;44160;49.080;19.302;2023-04-10T04:07:32;26.33;;;13.52;;
58354;SDS011;44160;49.080;19.302;2023-04-10T04:09:58;27.98;;;15.35;;
58354;SDS011;44160;49.080;19.302;2023-04-10T04:12:24;25.92;;;14.38;;
58354;SDS011;44160;49.080;19.302;2023-04-10T04:14:50;28.77;;;15.68;;
58354;SDS011;44160;49.080;19.302;2023-04-10T04:17:16;37.30;;;16.75;;
58354;SDS011;44160;49.080;19.302;2023-04-10T04:19:43;28.73;;;15.13;;
58354;SDS011;44160;49.080;19.302;2023-04-10T04:22:09;27.92;;;16.20;;
58354;SDS011;44160;49.080;19.302;2023-04-10T04:24:35;28.95;;;15.38;;
58354;SDS011;44160;49.080;19.302;2023-04-10T04:27:01;29.00;;;15.52;;
58354;SDS011;44160;49.080;19.302;2023-04-10T04:29:27;34.22;;;15.45;;
58354;SDS011;44160;49.080;19.302;2023-04-10T04:31:53;30.23;;;15.57;;
58354;SDS011;44160;49.080;19.302;2023-04-10T04:34:20;28.35;;;16.02;;
58354;SDS011;44160;49.080;19.302;2023-04-10T04:36:46;29.95;;;16.20;;
58354;SDS011;44160;49.080;19.302;2023-04-10T04:39:12;35.53;;;16.70;;
58354;SDS011;44160;49.080;19.302;2023-04-10T04:41:38;44.67;;;19.05;;
58354;SDS011;44160;49.080;19.302;2023-04-10T04:44:04;39.70;;;19.27;;
58354;SDS011;44160;49.080;19.302;2023-04-10T04:46:31;35.55;;;16.95;;
58354;SDS011;44160;49.080;19.302;2023-04-10T04:48:57;33.22;;;18.27;;
58354;SDS011;44160;49.080;19.302;2023-04-10T04:51:23;33.05;;;16.85;;
58354;SDS011;44160;49.080;19.302;2023-04-10T04:53:49;34.90;;;16.75;;
58354;SDS011;44160;49.080;19.302;2023-04-10T04:56:15;35.33;;;18.08;;
58354;SDS011;44160;49.080;19.302;2023-04-10T04:58:43;41.92;;;19.23;;
58354;SDS011;44160;49.080;19.302;2023-04-10T05:01:09;43.00;;;20.00;;
58354;SDS011;44160;49.080;19.302;2023-04-10T05:03:36;44.45;;;19.60;;
58354;SDS011;44160;49.080;19.302;2023-04-10T05:06:03;55.42;;;27.35;;
58354;SDS011;44160;49.080;19.302;2023-04-10T05:08:29;39.03;;;19.27;;
58354;SDS011;44160;49.080;19.302;2023-04-10T05:10:55;92.28;;;42.92;;
58354;SDS011;44160;49.080;19.302;2023-04-10T05:13:21;53.22;;;26.73;;
58354;SDS011;44160;49.080;19.302;2023-04-10T05:15:47;45.83;;;22.90;;
58354;SDS011;44160;49.080;19.302;2023-04-10T05:18:13;41.53;;;20.02;;
58354;SDS011;44160;49.080;19.302;2023-04-10T05:20:43;34.75;;;18.70;;
58354;SDS011;44160;49.080;19.302;2023-04-10T05:23:11;38.95;;;19.63;;
58354;SDS011;44160;49.080;19.302;2023-04-10T05:25:37;34.55;;;18.85;;
58354;SDS011;44160;49.080;19.302;2023-04-10T05:28:03;33.45;;;16.83;;
58354;SDS011;44160;49.080;19.302;2023-04-10T05:30:29;66.57;;;30.92;;
58354;SDS011;44160;49.080;19.302;2023-04-10T05:32:55;33.20;;;18.50;;
58354;SDS011;44160;49.080;19.302;2023-04-10T05:35:21;31.88;;;18.45;;
58354;SDS011;44160;49.080;19.302;2023-04-10T05:37:47;29.75;;;16.25;;
58354;SDS011;44160;49.080;19.302;2023-04-10T05:40:13;30.38;;;16.40;;
58354;SDS011;44160;49.080;19.302;2023-04-10T05:42:39;32.70;;;15.85;;
58354;SDS011;44160;49.080;19.302;2023-04-10T05:45:05;28.13;;;15.15;;
58354;SDS011;44160;49.080;19.302;2023-04-10T05:47:31;35.42;;;17.52;;
58354;SDS011;44160;49.080;19.302;2023-04-10T05:49:57;31.75;;;16.63;;
58354;SDS011;44160;49.080;19.302;2023-04-10T05:52:24;40.30;;;22.45;;
58354;SDS011;44160;49.080;19.302;2023-04-10T05:54:50;34.35;;;20.52;;
58354;SDS011;44160;49.080;19.302;2023-04-10T05:57:16;29.02;;;18.17;;
58354;SDS011;44160;49.080;19.302;2023-04-10T05:59:42;70.28;;;47.83;;
58354;SDS011;44160;49.080;19.302;2023-04-10T06:02:08;26.52;;;18.85;;
58354;SDS011;44160;49.080;19.302;2023-04-10T06:04:34;26.85;;;16.38;;
58354;SDS011;44160;49.080;19.302;2023-04-10T06:07:00;71.55;;;38.85;;
58354;SDS011;44160;49.080;19.302;2023-04-10T06:09:26;48.28;;;29.77;;
58354;SDS011;44160;49.080;19.302;2023-04-10T06:11:52;32.83;;;19.98;;
58354;SDS011;44160;49.080;19.302;2023-04-10T06:14:18;25.80;;;16.73;;
58354;SDS011;44160;49.080;19.302;2023-04-10T06:16:45;25.17;;;16.40;;
58354;SDS011;44160;49.080;19.302;2023-04-10T06:19:11;26.65;;;16.58;;
58354;SDS011;44160;49.080;19.302;2023-04-10T06:21:37;29.40;;;16.20;;
58354;SDS011;44160;49.080;19.302;2023-04-10T06:24:03;27.50;;;17.23;;
58354;SDS011;44160;49.080;19.302;2023-04-10T06:26:29;36.30;;;20.75;;
58354;SDS011;44160;49.080;19.302;2023-04-10T06:28:55;29.88;;;16.73;;
58354;SDS011;44160;49.080;19.302;2023-04-10T06:31:22;33.53;;;18.60;;
58354;SDS011;44160;49.080;19.302;2023-04-10T06:33:49;31.50;;;18.45;;
58354;SDS011;44160;49.080;19.302;2023-04-10T06:36:15;26.08;;;17.25;;
58354;SDS011;44160;49.080;19.302;2023-04-10T06:38:41;57.72;;;32.70;;
58354;SDS011;44160;49.080;19.302;2023-04-10T06:41:08;44.00;;;23.98;;
58354;SDS011;44160;49.080;19.302;2023-04-10T06:43:34;30.90;;;17.73;;
58354;SDS011;44160;49.080;19.302;2023-04-10T06:46:04;33.15;;;17.15;;
58354;SDS011;44160;49.080;19.302;2023-04-10T06:48:31;49.53;;;27.25;;
58354;SDS011;44160;49.080;19.302;2023-04-10T06:50:57;28.38;;;16.33;;
58354;SDS011;44160;49.080;19.302;2023-04-10T06:53:26;23.38;;;15.23;;
58354;SDS011;44160;49.080;19.302;2023-04-10T06:55:52;25.88;;;14.95;;
58354;SDS011;44160;49.080;19.302;2023-04-10T06:58:18;22.42;;;14.00;;
58354;SDS011;44160;49.080;19.302;2023-04-10T07:00:45;26.05;;;15.95;;
58354;SDS011;44160;49.080;19.302;2023-04-10T07:03:11;24.70;;;15.80;;
58354;SDS011;44160;49.080;19.302;2023-04-10T07:05:37;27.92;;;17.30;;
58354;SDS011;44160;49.080;19.302;2023-04-10T07:08:06;28.05;;;16.33;;
58354;SDS011;44160;49.080;19.302;2023-04-10T07:10:32;33.75;;;17.02;;
58354;SDS011;44160;49.080;19.302;2023-04-10T07:12:58;28.27;;;15.95;;
58354;SDS011;44160;49.080;19.302;2023-04-10T07:15:24;29.02;;;16.77;;
58354;SDS011;44160;49.080;19.302;2023-04-10T07:17:51;31.75;;;17.95;;
58354;SDS011;44160;49.080;19.302;2023-04-10T07:20:17;27.40;;;16.20;;
58354;SDS011;44160;49.080;19.302;2023-04-10T07:22:43;26.40;;;16.10;;
58354;SDS011;44160;49.080;19.302;2023-04-10T07:25:09;26.08;;;15.75;;
58354;SDS011;44160;49.080;19.302;2023-04-10T07:27:35;24.13;;;15.43;;
58354;SDS011;44160;49.080;19.302;2023-04-10T07:30:01;23.67;;;15.20;;
58354;SDS011;44160;49.080;19.302;2023-04-10T07:32:28;26.52;;;15.98;;
58354;SDS011;44160;49.080;19.302;2023-04-10T07:34:54;29.13;;;16.27;;
58354;SDS011;44160;49.080;19.302;2023-04-10T07:37:20;26.13;;;16.33;;
58354;SDS011;44160;49.080;19.302;2023-04-10T07:39:46;29.50;;;17.42;;
58354;SDS011;44160;49.080;19.302;2023-04-10T07:42:12;29.73;;;17.35;;
58354;SDS011;44160;49.080;19.302;2023-04-10T07:44:38;31.35;;;17.00;;
58354;SDS011;44160;49.080;19.302;2023-04-10T07:47:04;31.60;;;19.08;;
58354;SDS011;44160;49.080;19.302;2023-04-10T07:49:30;41.70;;;20.92;;
58354;SDS011;44160;49.080;19.302;2023-04-10T07:51:56;34.08;;;21.58;;
58354;SDS011;44160;49.080;19.302;2023-04-10T07:54:22;32.53;;;16.90;;
58354;SDS011;44160;49.080;19.302;2023-04-10T07:56:50;32.63;;;17.45;;
58354;SDS011;44160;49.080;19.302;2023-04-10T07:59:17;31.63;;;17.42;;
58354;SDS011;44160;49.080;19.302;2023-04-10T08:01:43;30.70;;;19.38;;
58354;SDS011;44160;49.080;19.302;2023-04-10T08:04:09;30.20;;;19.27;;
58354;SDS011;44160;49.080;19.302;2023-04-10T08:06:35;26.77;;;16.30;;
58354;SDS011;44160;49.080;19.302;2023-04-10T08:09:01;27.52;;;17.25;;
58354;SDS011;44160;49.080;19.302;2023-04-10T08:11:28;26.13;;;14.63;;
58354;SDS011;44160;49.080;19.302;2023-04-10T08:13:55;28.63;;;16.63;;
58354;SDS011;44160;49.080;19.302;2023-04-10T08:16:29;29.60;;;15.77;;
58354;SDS011;44160;49.080;19.302;2023-04-10T08:18:55;28.52;;;17.35;;
58354;SDS011;44160;49.080;19.302;2023-04-10T08:21:21;27.05;;;16.88;;
58354;SDS011;44160;49.080;19.302;2023-04-10T08:24:06;32.42;;;17.55;;
58354;SDS011;44160;49.080;19.302;2023-04-10T08:26:32;34.67;;;18.30;;
58354;SDS011;44160;49.080;19.302;2023-04-10T08:28:59;32.80;;;18.55;;
58354;SDS011;44160;49.080;19.302;2023-04-10T08:31:26;27.58;;;17.52;;
58354;SDS011;44160;49.080;19.302;2023-04-10T08:33:55;32.83;;;18.55;;
58354;SDS011;44160;49.080;19.302;2023-04-10T08:36:21;36.35;;;18.20;;
58354;SDS011;44160;49.080;19.302;2023-04-10T08:38:47;33.80;;;17.90;;
58354;SDS011;44160;49.080;19.302;2023-04-10T08:41:17;29.90;;;17.75;;
58354;SDS011;44160;49.080;19.302;2023-04-10T08:43:43;33.92;;;18.33;;
58354;SDS011;44160;49.080;19.302;2023-04-10T08:46:10;34.95;;;18.98;;
58354;SDS011;44160;49.080;19.302;2023-04-10T08:49:09;32.45;;;19.40;;
58354;SDS011;44160;49.080;19.302;2023-04-10T08:51:35;36.80;;;20.48;;
58354;SDS011;44160;49.080;19.302;2023-04-10T08:56:57;33.72;;;19.63;;
58354;SDS011;44160;49.080;19.302;2023-04-10T08:59:28;34.15;;;18.65;;
58354;SDS011;44160;49.080;19.302;2023-04-10T09:01:55;35.80;;;20.80;;
58354;SDS011;44160;49.080;19.302;2023-04-10T09:04:22;36.55;;;19.63;;
58354;SDS011;44160;49.080;19.302;2023-04-10T09:06:48;33.50;;;19.45;;
58354;SDS011;44160;49.080;19.302;2023-04-10T09:09:14;32.70;;;19.38;;
58354;SDS011;44160;49.080;19.302;2023-04-10T09:14:23;37.45;;;19.80;;
58354;SDS011;44160;49.080;19.302;2023-04-10T09:16:50;29.50;;;19.15;;
58354;SDS011;44160;49.080;19.302;2023-04-10T09:19:28;28.80;;;19.33;;
58354;SDS011;44160;49.080;19.302;2023-04-10T09:21:54;29.98;;;18.67;;
58354;SDS011;44160;49.080;19.302;2023-04-10T09:24:24;33.30;;;19.90;;
58354;SDS011;44160;49.080;19.302;2023-04-10T09:26:51;30.48;;;19.58;;
58354;SDS011;44160;49.080;19.302;2023-04-10T09:29:17;29.35;;;19.42;;
58354;SDS011;44160;49.080;19.302;2023-04-10T09:31:43;34.20;;;20.38;;
58354;SDS011;44160;49.080;19.302;2023-04-10T09:34:11;32.50;;;20.02;;
58354;SDS011;44160;49.080;19.302;2023-04-10T09:36:39;31.95;;;20.88;;
58354;SDS011;44160;49.080;19.302;2023-04-10T09:39:05;32.97;;;20.50;;
58354;SDS011;44160;49.080;19.302;2023-04-10T09:41:32;34.63;;;21.27;;
58354;SDS011;44160;49.080;19.302;2023-04-10T09:44:05;31.77;;;20.42;;
58354;SDS011;44160;49.080;19.302;2023-04-10T09:46:32;31.95;;;19.42;;
58354;SDS011;44160;49.080;19.302;2023-04-10T09:48:58;29.33;;;19.70;;
58354;SDS011;44160;49.080;19.302;2023-04-10T09:51:32;31.17;;;19.63;;
58354;SDS011;44160;49.080;19.302;2023-04-10T09:54:00;33.20;;;19.35;;
58354;SDS011;44160;49.080;19.302;2023-04-10T09:56:27;30.20;;;20.23;;
58354;SDS011;44160;49.080;19.302;2023-04-10T09:58:55;33.75;;;21.05;;
58354;SDS011;44160;49.080;19.302;2023-04-10T10:01:22;37.03;;;22.02;;
58354;SDS011;44160;49.080;19.302;2023-04-10T10:03:49;45.35;;;25.80;;
58354;SDS011;44160;49.080;19.302;2023-04-10T10:06:15;33.83;;;20.65;;
58354;SDS011;44160;49.080;19.302;2023-04-10T10:08:41;32.78;;;20.45;;
58354;SDS011;44160;49.080;19.302;2023-04-10T10:11:08;31.00;;;19.02;;
58354;SDS011;44160;49.080;19.302;2023-04-10T10:13:49;35.30;;;21.92;;
58354;SDS011;44160;49.080;19.302;2023-04-10T10:16:24;28.83;;;19.42;;
58354;SDS011;44160;49.080;19.302;2023-04-10T10:19:15;30.85;;;18.33;;
58354;SDS011;44160;49.080;19.302;2023-04-10T10:21:40;28.83;;;19.02;;
58354;SDS011;44160;49.080;19.302;2023-04-10T10:24:08;30.33;;;18.42;;
58354;SDS011;44160;49.080;19.302;2023-04-10T10:26:36;32.45;;;20.42;;
58354;SDS011;44160;49.080;19.302;2023-04-10T10:29:04;30.15;;;19.58;;
58354;SDS011;44160;49.080;19.302;2023-04-10T10:31:37;49.65;;;29.55;;
58354;SDS011;44160;49.080;19.302;2023-04-10T10:34:32;29.90;;;18.45;;
58354;SDS011;44160;49.080;19.302;2023-04-10T10:36:59;22.60;;;14.80;;
58354;SDS011;44160;49.080;19.302;2023-04-10T10:42:35;22.67;;;16.02;;
58354;SDS011;44160;49.080;19.302;2023-04-10T10:45:07;18.13;;;13.07;;
58354;SDS011;44160;49.080;19.302;2023-04-10T10:50:07;18.13;;;11.63;;
58354;SDS011;44160;49.080;19.302;2023-04-10T10:52:37;15.13;;;10.10;;
58354;SDS011;44160;49.080;19.302;2023-04-10T11:00:15;17.92;;;10.77;;
58354;SDS011;44160;49.080;19.302;2023-04-10T11:02:44;13.80;;;10.23;;
58354;SDS011;44160;49.080;19.302;2023-04-10T11:05:12;15.57;;;10.02;;
58354;SDS011;44160;49.080;19.302;2023-04-10T11:16:18;13.32;;;9.80;;
58354;SDS011;44160;49.080;19.302;2023-04-10T11:21:14;14.90;;;10.68;;
58354;SDS011;44160;49.080;19.302;2023-04-10T11:26:35;17.35;;;11.43;;
58354;SDS011;44160;49.080;19.302;2023-04-10T11:31:40;20.33;;;13.93;;
58354;SDS011;44160;49.080;19.302;2023-04-10T11:34:06;15.68;;;10.60;;
58354;SDS011;44160;49.080;19.302;2023-04-10T11:36:37;16.70;;;10.73;;
58354;SDS011;44160;49.080;19.302;2023-04-10T11:39:07;14.93;;;11.13;;
58354;SDS011;44160;49.080;19.302;2023-04-10T11:44:04;13.48;;;10.55;;
58354;SDS011;44160;49.080;19.302;2023-04-10T11:46:52;16.48;;;10.43;;
58354;SDS011;44160;49.080;19.302;2023-04-10T11:49:25;16.40;;;10.75;;
58354;SDS011;44160;49.080;19.302;2023-04-10T11:54:48;16.25;;;10.80;;
58354;SDS011;44160;49.080;19.302;2023-04-10T11:57:15;13.48;;;10.25;;
58354;SDS011;44160;49.080;19.302;2023-04-10T11:59:48;17.20;;;11.52;;
58354;SDS011;44160;49.080;19.302;2023-04-10T12:02:17;15.05;;;10.13;;
58354;SDS011;44160;49.080;19.302;2023-04-10T12:04:43;16.23;;;10.45;;
58354;SDS011;44160;49.080;19.302;2023-04-10T12:07:12;15.35;;;9.65;;
58354;SDS011;44160;49.080;19.302;2023-04-10T12:09:38;15.23;;;9.77;;
58354;SDS011;44160;49.080;19.302;2023-04-10T12:12:11;13.90;;;9.73;;
58354;SDS011;44160;49.080;19.302;2023-04-10T12:14:40;12.70;;;8.68;;
58354;SDS011;44160;49.080;19.302;2023-04-10T12:17:10;22.48;;;13.10;;
58354;SDS011;44160;49.080;19.302;2023-04-10T12:19:46;21.83;;;12.85;;
58354;SDS011;44160;49.080;19.302;2023-04-10T12:22:25;15.65;;;10.82;;
58354;SDS011;44160;49.080;19.302;2023-04-10T12:25:00;15.18;;;11.30;;
58354;SDS011;44160;49.080;19.302;2023-04-10T12:30:24;15.57;;;10.43;;
58354;SDS011;44160;49.080;19.302;2023-04-10T12:32:55;15.25;;;10.13;;
58354;SDS011;44160;49.080;19.302;2023-04-10T12:35:40;15.15;;;10.18;;
58354;SDS011;44160;49.080;19.302;2023-04-10T12:38:10;17.98;;;12.05;;
58354;SDS011;44160;49.080;19.302;2023-04-10T12:40:36;15.57;;;10.05;;
58354;SDS011;44160;49.080;19.302;2023-04-10T12:43:04;16.40;;;10.48;;
58354;SDS011;44160;49.080;19.302;2023-04-10T12:45:40;13.38;;;9.43;;
58354;SDS011;44160;49.080;19.302;2023-04-10T12:48:07;13.30;;;9.23;;
58354;SDS011;44160;49.080;19.302;2023-04-10T12:50:45;14.52;;;8.80;;
58354;SDS011;44160;49.080;19.302;2023-04-10T12:53:13;16.13;;;8.10;;
58354;SDS011;44160;49.080;19.302;2023-04-10T12:55:40;12.18;;;7.72;;
58354;SDS011;44160;49.080;19.302;2023-04-10T12:58:19;11.25;;;8.27;;
58354;SDS011;44160;49.080;19.302;2023-04-10T13:00:45;12.68;;;8.35;;
58354;SDS011;44160;49.080;19.302;2023-04-10T13:03:11;12.38;;;8.18;;
58354;SDS011;44160;49.080;19.302;2023-04-10T13:05:38;12.88;;;9.18;;
58354;SDS011;44160;49.080;19.302;2023-04-10T13:08:04;12.65;;;8.82;;
58354;SDS011;44160;49.080;19.302;2023-04-10T13:10:30;14.95;;;8.70;;
58354;SDS011;44160;49.080;19.302;2023-04-10T13:12:57;12.60;;;7.80;;
58354;SDS011;44160;49.080;19.302;2023-04-10T13:15:29;13.43;;;9.45;;
58354;SDS011;44160;49.080;19.302;2023-04-10T13:17:58;11.15;;;8.30;;
58354;SDS011;44160;49.080;19.302;2023-04-10T13:20:24;14.50;;;8.15;;
58354;SDS011;44160;49.080;19.302;2023-04-10T13:22:51;15.38;;;9.52;;
58354;SDS011;44160;49.080;19.302;2023-04-10T13:25:17;15.35;;;7.47;;
58354;SDS011;44160;49.080;19.302;2023-04-10T13:27:43;10.55;;;6.75;;
58354;SDS011;44160;49.080;19.302;2023-04-10T13:30:09;10.80;;;7.55;;
58354;SDS011;44160;49.080;19.302;2023-04-10T13:32:35;9.27;;;7.35;;
58354;SDS011;44160;49.080;19.302;2023-04-10T13:35:01;13.35;;;7.25;;
58354;SDS011;44160;49.080;19.302;2023-04-10T13:37:27;11.77;;;7.60;;
58354;SDS011;44160;49.080;19.302;2023-04-10T13:39:53;10.45;;;7.00;;
58354;SDS011;44160;49.080;19.302;2023-04-10T13:42:20;10.48;;;7.00;;
58354;SDS011;44160;49.080;19.302;2023-04-10T13:44:46;11.18;;;7.00;;
58354;SDS011;44160;49.080;19.302;2023-04-10T13:47:12;13.52;;;7.38;;
58354;SDS011;44160;49.080;19.302;2023-04-10T13:49:38;11.15;;;6.68;;
58354;SDS011;44160;49.080;19.302;2023-04-10T13:52:04;11.27;;;7.05;;
58354;SDS011;44160;49.080;19.302;2023-04-10T13:54:31;11.25;;;7.00;;
58354;SDS011;44160;49.080;19.302;2023-04-10T13:56:57;11.57;;;7.03;;
58354;SDS011;44160;49.080;19.302;2023-04-10T13:59:23;11.60;;;7.93;;
58354;SDS011;44160;49.080;19.302;2023-04-10T14:01:49;12.13;;;7.28;;
58354;SDS011;44160;49.080;19.302;2023-04-10T14:04:16;13.32;;;7.57;;
58354;SDS011;44160;49.080;19.302;2023-04-10T14:06:42;14.63;;;7.68;;
58354;SDS011;44160;49.080;19.302;2023-04-10T14:09:08;11.82;;;6.80;;
58354;SDS011;44160;49.080;19.302;2023-04-10T14:11:34;10.70;;;7.32;;
58354;SDS011;44160;49.080;19.302;2023-04-10T14:14:00;10.15;;;6.90;;
58354;SDS011;44160;49.080;19.302;2023-04-10T14:16:27;11.25;;;5.70;;
58354;SDS011;44160;49.080;19.302;2023-04-10T14:18:53;10.57;;;6.82;;
58354;SDS011;44160;49.080;19.302;2023-04-10T14:21:19;13.63;;;7.65;;
58354;SDS011;44160;49.080;19.302;2023-04-10T14:23:45;9.27;;;6.20;;
58354;SDS011;44160;49.080;19.302;2023-04-10T14:26:11;8.65;;;6.43;;
58354;SDS011;44160;49.080;19.302;2023-04-10T14:28:37;12.27;;;6.60;;
58354;SDS011;44160;49.080;19.302;2023-04-10T14:31:03;12.25;;;6.97;;
58354;SDS011;44160;49.080;19.302;2023-04-10T14:33:30;12.38;;;6.90;;
58354;SDS011;44160;49.080;19.302;2023-04-10T14:35:56;10.13;;;6.40;;
58354;SDS011;44160;49.080;19.302;2023-04-10T14:38:22;10.00;;;5.97;;
58354;SDS011;44160;49.080;19.302;2023-04-10T14:40:48;12.13;;;7.35;;
58354;SDS011;44160;49.080;19.302;2023-04-10T14:43:14;20.73;;;12.10;;
58354;SDS011;44160;49.080;19.302;2023-04-10T14:45:40;16.08;;;7.78;;
58354;SDS011;44160;49.080;19.302;2023-04-10T14:48:07;14.18;;;8.32;;
58354;SDS011;44160;49.080;19.302;2023-04-10T14:50:33;9.38;;;6.78;;
58354;SDS011;44160;49.080;19.302;2023-04-10T14:53:00;9.95;;;5.95;;
58354;SDS011;44160;49.080;19.302;2023-04-10T14:55:27;13.50;;;7.22;;
58354;SDS011;44160;49.080;19.302;2023-04-10T14:57:54;15.35;;;7.15;;
58354;SDS011;44160;49.080;19.302;2023-04-10T15:00:20;9.75;;;6.10;;
58354;SDS011;44160;49.080;19.302;2023-04-10T15:02:48;9.57;;;6.25;;
58354;SDS011;44160;49.080;19.302;2023-04-10T15:05:14;11.95;;;7.20;;
58354;SDS011;44160;49.080;19.302;2023-04-10T15:07:40;12.98;;;7.60;;
58354;SDS011;44160;49.080;19.302;2023-04-10T15:10:06;12.18;;;7.20;;